Taiwan Taoyuan International Airport
RCTP : now visible

Aeroporto :











RITROVATECI SU...

 
LOGIN :

Iscrizione | Disclaimer

   EN    FR    IT 

 









Sommario :    VFR   VFR Marginale   IFR   IFR Intensivo   IFR Molto Intensivo
Visibilità : 
Base nubi : 
>= 8 km
>= 3000ft
5 / 8 km
1000 / 3000 ft
1500m / 5 km
500 / 1000 ft
800 / 1500m
200 / 500 ft
< 800m
< 200 ft
Simboli :   Temporali  Nebbia  Neve Forte  Precipitazioni Forti  Vento > 20 kt






- Altitudine del aeroporto : 106 ft
- Codice IATA : TPE


RCTP - Taiwan Taoyuan International

ULTIMO METAR :
  • 072300Z 20006KT 170V230 9999 FEW020 31/26 Q1007 NOSIG RMK A2974

METARs OBSOLETI :
  • 072230Z 19005KT 160V220 9999 FEW020 30/26 Q1007 NOSIG RMK A2974
  • 072200Z 19004KT 160V230 9999 FEW020 29/25 Q1007 NOSIG RMK A2974
  • 072130Z 20003KT 9999 FEW020 28/25 Q1007 NOSIG RMK A2974
  • 072100Z 20003KT 160V220 9999 FEW020 29/25 Q1007 NOSIG RMK A2975
  • 072030Z 20004KT 160V230 9999 FEW020 29/26 Q1007 NOSIG RMK A2975
  • 072000Z 20005KT 9999 FEW020 29/26 Q1007 NOSIG RMK A2975

TAF TAF RCTP
Valido dal 07 a 18 ore il 09 a 00 ore UTC


071700Z 0718/0824 22010KT 9999 FEW015
BECMG 0801/0803 23017KT
BECMG 0809/0811 22010KT
TEMPO 0812/0818 20005KT
FIR RCAA / Asia



MetMap, La meteo Aeronautica in un colpo d'occhio ! - Copyright ORBIFLY Dicembre 2007 - Disclaimer

ORBIFLY MET'MAP TEAM :

Programmazione e sviluppo : Alexandra Zaïnal
Concezione : Baudouin d'Aumeries
Aiuto per la programmazione : Marc-Olivier Méhu
Supporto tecnico e logistico : Manuel Goepfert
Aiuto per la traduzione : Arnaldo La Scala

Contatto : metmap@orbifly.com




FONTI E CREDITI :

   NOAA       Earth
Advisory